Virtual Washington ARTCC

Weather

KBWI 231154Z 23004KT 10SM SCT180 BKN240 M03/M05 A3046 RMK AO2 SLP316 T10331050 10006 21033 53019
KDCA 231152Z 21004KT 10SM BKN240 00/M02 A3049 RMK AO2 SLP324 T00001022 10044 21006 53021
KIAD 231152Z 29005KT 10SM CLR M01/M06 A3047 RMK AO2 SLP320 T10061056 10017 21033 53017
KORF 231151Z 01011G17KT 10SM CLR 05/M02 A3046 RMK AO2 SLP315 T00501017 10061 20050 53015
KRDU 231151Z 00000KT 10SM BKN190 M01/M03 A3048 RMK AO2 SLP324 T10061033 10056 21017 53025

Events



Join vZDC as we have host an aviation ball to remember at Washington-National Airport as the wheels of democracy turn. Details


ZDC Activity

Arvid Hansson   CHO_TWR
Krikor Hajian   DC_32_CTR
Aaron Albertson   IAD_TWR
   

News



The information contained on all pages of this website is to be used for flight simulation purposes only on the VATSIM network. It is not intended nor should it be used for real world navigation.This site is not affiliated with the FAA, the actual Washington Center or any governing aviation body. All content contained herein is approved only for use on the VATSIM network. ©2016 Virtual Washington ARTCC -- Source Code © 2016-2017 W. Guisbond and R. Rump.